KCOT

Cotulla-La Salle County Airport

Cotulla, Texas, USA

KCOT 110853Z AUTO 33005KT 10SM CLR 03/02 A3039 RMK AO2 SLP287 T00330017 58004 $

Observed Flight Rules
Dec-11 @ 08:53 UTC (26 minutes ago) Visual Flight Rules
Wind Visibility Clouds
330° at 5 knots 10 miles
  • Clear skies
Temperatures Readings
Current 3°C / 37°F
Dewpoint 2°C / 36°F
Humidity 93%
Altimeter 30.39" Hg
Pressure 1028.7 hPa
Elevation 140
Observed Flight Rules
Dec-11 @ 08:53 UTC
(26 minutes ago)
VFR
Wind Visibility
330° at 5 knots 10 miles
Clouds
  • Clear skies
Temperature Dewpoint
3°C / 37°F 2°C / 36°F
Humidity Altimeter Pressure
93% 30.39" Hg 1028.7 hPa